sensor_id;sensor_type;location;lat;lon;timestamp;pressure;altitude;pressure_sealevel;temperature;humidity
55912;BME280;41823;45.534;-73.332;2022-10-19T00:02:23;99836.36;;;31.93;14.37
55912;BME280;41823;45.534;-73.332;2022-10-19T00:04:51;99840.79;;;32.04;14.38
55912;BME280;41823;45.534;-73.332;2022-10-19T00:07:19;99843.63;;;31.54;14.39
55912;BME280;41823;45.534;-73.332;2022-10-19T00:09:47;99849.85;;;31.39;14.50
55912;BME280;41823;45.534;-73.332;2022-10-19T00:12:15;99852.74;;;31.65;14.72
55912;BME280;41823;45.534;-73.332;2022-10-19T00:14:43;99852.73;;;31.72;14.62
55912;BME280;41823;45.534;-73.332;2022-10-19T00:17:11;99852.07;;;31.86;14.66
55912;BME280;41823;45.534;-73.332;2022-10-19T00:19:39;99857.30;;;31.64;14.82
55912;BME280;41823;45.534;-73.332;2022-10-19T00:22:07;99858.21;;;31.71;14.70
55912;BME280;41823;45.534;-73.332;2022-10-19T00:24:35;99865.15;;;31.34;14.79
55912;BME280;41823;45.534;-73.332;2022-10-19T00:27:03;99866.76;;;31.86;14.74
55912;BME280;41823;45.534;-73.332;2022-10-19T00:29:31;99869.99;;;31.34;14.64
55912;BME280;41823;45.534;-73.332;2022-10-19T00:31:59;99870.30;;;31.32;14.82
55912;BME280;41823;45.534;-73.332;2022-10-19T00:34:27;99869.31;;;31.19;14.94
55912;BME280;41823;45.534;-73.332;2022-10-19T00:36:55;99870.80;;;31.59;14.88
55912;BME280;41823;45.534;-73.332;2022-10-19T00:39:23;99870.19;;;31.24;14.94
55912;BME280;41823;45.534;-73.332;2022-10-19T00:41:51;99866.92;;;31.62;14.88
55912;BME280;41823;45.534;-73.332;2022-10-19T00:45:24;99869.31;;;31.69;14.90
55912;BME280;41823;45.534;-73.332;2022-10-19T00:47:51;99867.43;;;31.41;14.87
55912;BME280;41823;45.534;-73.332;2022-10-19T00:50:19;99867.96;;;31.71;14.65
55912;BME280;41823;45.534;-73.332;2022-10-19T00:52:47;99866.71;;;31.81;14.52
55912;BME280;41823;45.534;-73.332;2022-10-19T00:55:16;99866.71;;;31.62;14.61
55912;BME280;41823;45.534;-73.332;2022-10-19T00:57:43;99870.43;;;31.76;14.61
55912;BME280;41823;45.534;-73.332;2022-10-19T01:00:12;99872.27;;;31.70;14.62
55912;BME280;41823;45.534;-73.332;2022-10-19T01:02:40;99874.03;;;31.73;14.52
55912;BME280;41823;45.534;-73.332;2022-10-19T01:05:09;99879.71;;;31.64;14.27
55912;BME280;41823;45.534;-73.332;2022-10-19T01:07:38;99883.36;;;31.65;14.23
55912;BME280;41823;45.534;-73.332;2022-10-19T01:10:06;99887.37;;;31.67;14.44
55912;BME280;41823;45.534;-73.332;2022-10-19T01:12:57;99882.88;;;31.54;14.48
55912;BME280;41823;45.534;-73.332;2022-10-19T01:15:35;99879.24;;;31.70;14.43
55912;BME280;41823;45.534;-73.332;2022-10-19T01:18:18;99881.56;;;31.33;14.48
55912;BME280;41823;45.534;-73.332;2022-10-19T01:21:13;99884.62;;;31.83;14.42
55912;BME280;41823;45.534;-73.332;2022-10-19T01:25:05;99884.54;;;31.25;14.39
55912;BME280;41823;45.534;-73.332;2022-10-19T01:27:49;99879.86;;;31.62;13.97
55912;BME280;41823;45.534;-73.332;2022-10-19T01:30:30;99884.69;;;32.07;13.82
55912;BME280;41823;45.534;-73.332;2022-10-19T01:33:13;99891.74;;;31.68;13.87
55912;BME280;41823;45.534;-73.332;2022-10-19T01:35:50;99893.99;;;31.53;13.92
55912;BME280;41823;45.534;-73.332;2022-10-19T01:38:28;99895.39;;;31.78;13.71
55912;BME280;41823;45.534;-73.332;2022-10-19T01:41:07;99890.82;;;31.78;13.83
55912;BME280;41823;45.534;-73.332;2022-10-19T01:43:44;99895.09;;;31.60;13.68
55912;BME280;41823;45.534;-73.332;2022-10-19T01:46:18;99899.48;;;31.50;13.94
55912;BME280;41823;45.534;-73.332;2022-10-19T01:48:51;99900.44;;;31.42;13.81
55912;BME280;41823;45.534;-73.332;2022-10-19T01:51:24;99901.81;;;31.35;13.77
55912;BME280;41823;45.534;-73.332;2022-10-19T01:53:56;99902.12;;;31.17;13.94
55912;BME280;41823;45.534;-73.332;2022-10-19T01:56:27;99907.94;;;31.52;13.87
55912;BME280;41823;45.534;-73.332;2022-10-19T01:58:59;99913.11;;;31.43;13.90
55912;BME280;41823;45.534;-73.332;2022-10-19T02:01:30;99915.37;;;31.16;13.86
55912;BME280;41823;45.534;-73.332;2022-10-19T02:04:01;99919.05;;;31.33;13.87
55912;BME280;41823;45.534;-73.332;2022-10-19T02:06:30;99917.19;;;31.69;13.70
55912;BME280;41823;45.534;-73.332;2022-10-19T02:08:59;99928.55;;;31.32;13.89
55912;BME280;41823;45.534;-73.332;2022-10-19T02:11:28;99925.78;;;31.46;13.83
55912;BME280;41823;45.534;-73.332;2022-10-19T02:14:03;99925.63;;;31.30;13.88
55912;BME280;41823;45.534;-73.332;2022-10-19T02:16:36;99921.17;;;31.52;13.72
55912;BME280;41823;45.534;-73.332;2022-10-19T02:19:08;99921.04;;;31.47;13.86
55912;BME280;41823;45.534;-73.332;2022-10-19T02:21:37;99919.70;;;31.34;13.91
55912;BME280;41823;45.534;-73.332;2022-10-19T02:24:05;99918.55;;;31.10;13.90
55912;BME280;41823;45.534;-73.332;2022-10-19T02:26:33;99911.23;;;31.29;13.90
55912;BME280;41823;45.534;-73.332;2022-10-19T02:29:04;99910.40;;;31.39;13.68
55912;BME280;41823;45.534;-73.332;2022-10-19T02:31:32;99910.17;;;31.44;13.67
55912;BME280;41823;45.534;-73.332;2022-10-19T02:34:00;99908.52;;;31.58;13.70
55912;BME280;41823;45.534;-73.332;2022-10-19T02:36:28;99917.18;;;31.30;13.59
55912;BME280;41823;45.534;-73.332;2022-10-19T02:38:56;99920.38;;;31.64;13.76
55912;BME280;41823;45.534;-73.332;2022-10-19T02:41:28;99917.94;;;31.58;13.77
55912;BME280;41823;45.534;-73.332;2022-10-19T02:44:00;99917.98;;;31.56;13.76
55912;BME280;41823;45.534;-73.332;2022-10-19T02:46:34;99921.92;;;31.46;13.93
55912;BME280;41823;45.534;-73.332;2022-10-19T02:49:06;99923.36;;;31.45;13.81
55912;BME280;41823;45.534;-73.332;2022-10-19T02:51:37;99922.12;;;31.44;14.00
55912;BME280;41823;45.534;-73.332;2022-10-19T02:54:06;99927.18;;;31.75;13.86
55912;BME280;41823;45.534;-73.332;2022-10-19T02:56:34;99923.02;;;31.14;13.93
55912;BME280;41823;45.534;-73.332;2022-10-19T02:59:03;99922.57;;;31.65;13.96
55912;BME280;41823;45.534;-73.332;2022-10-19T03:01:31;99923.54;;;31.36;14.22
55912;BME280;41823;45.534;-73.332;2022-10-19T03:03:59;99921.22;;;31.54;13.86
55912;BME280;41823;45.534;-73.332;2022-10-19T03:06:27;99922.77;;;31.04;14.24
55912;BME280;41823;45.534;-73.332;2022-10-19T03:08:55;99922.20;;;31.45;14.21
55912;BME280;41823;45.534;-73.332;2022-10-19T03:11:22;99923.75;;;31.33;14.27
55912;BME280;41823;45.534;-73.332;2022-10-19T03:13:51;99920.57;;;31.59;14.25
55912;BME280;41823;45.534;-73.332;2022-10-19T03:16:19;99924.13;;;31.35;14.37
55912;BME280;41823;45.534;-73.332;2022-10-19T03:18:47;99924.76;;;31.23;14.25
55912;BME280;41823;45.534;-73.332;2022-10-19T03:21:16;99928.88;;;31.66;14.16
55912;BME280;41823;45.534;-73.332;2022-10-19T03:23:44;99927.15;;;31.13;14.36
55912;BME280;41823;45.534;-73.332;2022-10-19T03:26:15;99928.81;;;31.47;14.30
55912;BME280;41823;45.534;-73.332;2022-10-19T03:28:43;99931.09;;;31.36;14.38
55912;BME280;41823;45.534;-73.332;2022-10-19T03:31:11;99924.23;;;31.27;14.39
55912;BME280;41823;45.534;-73.332;2022-10-19T03:33:39;99926.94;;;31.40;14.44
55912;BME280;41823;45.534;-73.332;2022-10-19T03:36:16;99927.41;;;31.37;14.33
55912;BME280;41823;45.534;-73.332;2022-10-19T03:38:44;99922.02;;;31.44;14.14
55912;BME280;41823;45.534;-73.332;2022-10-19T03:41:12;99923.35;;;31.17;14.49
55912;BME280;41823;45.534;-73.332;2022-10-19T03:43:40;99927.83;;;31.35;14.54
55912;BME280;41823;45.534;-73.332;2022-10-19T03:46:08;99925.18;;;31.26;14.49
55912;BME280;41823;45.534;-73.332;2022-10-19T03:48:36;99915.60;;;31.33;14.64
55912;BME280;41823;45.534;-73.332;2022-10-19T03:51:06;99918.92;;;31.82;14.37
55912;BME280;41823;45.534;-73.332;2022-10-19T03:53:35;99922.29;;;31.27;14.58
55912;BME280;41823;45.534;-73.332;2022-10-19T03:56:05;99929.96;;;31.56;14.54
55912;BME280;41823;45.534;-73.332;2022-10-19T03:58:35;99921.87;;;31.73;14.44
55912;BME280;41823;45.534;-73.332;2022-10-19T04:01:07;99922.35;;;31.34;14.54
55912;BME280;41823;45.534;-73.332;2022-10-19T04:03:35;99919.94;;;30.94;14.61
55912;BME280;41823;45.534;-73.332;2022-10-19T04:06:05;99915.51;;;31.67;14.50
55912;BME280;41823;45.534;-73.332;2022-10-19T04:08:34;99916.40;;;31.29;14.72
55912;BME280;41823;45.534;-73.332;2022-10-19T04:11:04;99922.08;;;31.37;14.57
55912;BME280;41823;45.534;-73.332;2022-10-19T04:13:33;99909.15;;;31.34;14.63
55912;BME280;41823;45.534;-73.332;2022-10-19T04:16:02;99910.46;;;31.37;14.77
55912;BME280;41823;45.534;-73.332;2022-10-19T04:18:30;99908.33;;;31.14;14.93
55912;BME280;41823;45.534;-73.332;2022-10-19T04:20:59;99906.44;;;31.18;14.94
55912;BME280;41823;45.534;-73.332;2022-10-19T04:23:29;99909.05;;;31.21;14.80
55912;BME280;41823;45.534;-73.332;2022-10-19T04:25:59;99914.11;;;31.66;14.66
55912;BME280;41823;45.534;-73.332;2022-10-19T04:28:27;99909.01;;;31.30;14.87
55912;BME280;41823;45.534;-73.332;2022-10-19T04:30:55;99913.58;;;31.15;14.83
55912;BME280;41823;45.534;-73.332;2022-10-19T04:33:23;99909.54;;;31.44;14.78
55912;BME280;41823;45.534;-73.332;2022-10-19T04:35:57;99907.32;;;31.44;14.80
55912;BME280;41823;45.534;-73.332;2022-10-19T04:38:25;99908.92;;;31.34;14.83
55912;BME280;41823;45.534;-73.332;2022-10-19T04:40:53;99903.87;;;31.04;14.89
55912;BME280;41823;45.534;-73.332;2022-10-19T04:43:21;99910.05;;;31.11;14.91
55912;BME280;41823;45.534;-73.332;2022-10-19T04:45:49;99902.17;;;31.52;14.73
55912;BME280;41823;45.534;-73.332;2022-10-19T04:48:16;99903.37;;;31.07;14.72
55912;BME280;41823;45.534;-73.332;2022-10-19T04:50:44;99896.15;;;31.36;14.68
55912;BME280;41823;45.534;-73.332;2022-10-19T04:53:12;99904.10;;;30.96;14.91
55912;BME280;41823;45.534;-73.332;2022-10-19T04:55:41;99904.06;;;31.18;14.98
55912;BME280;41823;45.534;-73.332;2022-10-19T04:58:09;99907.03;;;31.44;14.68
55912;BME280;41823;45.534;-73.332;2022-10-19T05:00:38;99912.54;;;31.64;14.66
55912;BME280;41823;45.534;-73.332;2022-10-19T05:03:05;99916.16;;;31.38;14.79
55912;BME280;41823;45.534;-73.332;2022-10-19T05:05:34;99915.99;;;31.30;14.62
55912;BME280;41823;45.534;-73.332;2022-10-19T05:08:02;99920.75;;;31.28;14.75
55912;BME280;41823;45.534;-73.332;2022-10-19T05:10:30;99914.71;;;31.27;14.81
55912;BME280;41823;45.534;-73.332;2022-10-19T05:13:00;99911.77;;;31.60;14.59
55912;BME280;41823;45.534;-73.332;2022-10-19T05:15:27;99910.04;;;31.09;14.78
55912;BME280;41823;45.534;-73.332;2022-10-19T05:17:55;99906.93;;;31.27;14.70
55912;BME280;41823;45.534;-73.332;2022-10-19T05:20:24;99907.88;;;31.53;14.68
55912;BME280;41823;45.534;-73.332;2022-10-19T05:22:52;99915.51;;;31.06;14.82
55912;BME280;41823;45.534;-73.332;2022-10-19T05:25:20;99915.79;;;31.32;14.77
55912;BME280;41823;45.534;-73.332;2022-10-19T05:27:51;99919.10;;;31.30;14.64
55912;BME280;41823;45.534;-73.332;2022-10-19T05:30:19;99921.90;;;31.17;14.74
55912;BME280;41823;45.534;-73.332;2022-10-19T05:32:47;99920.55;;;31.29;14.80
55912;BME280;41823;45.534;-73.332;2022-10-19T05:35:15;99918.99;;;31.10;14.61
55912;BME280;41823;45.534;-73.332;2022-10-19T05:37:43;99916.70;;;31.18;14.70
55912;BME280;41823;45.534;-73.332;2022-10-19T05:40:11;99919.84;;;31.21;14.51
55912;BME280;41823;45.534;-73.332;2022-10-19T05:42:39;99919.35;;;31.49;14.66
55912;BME280;41823;45.534;-73.332;2022-10-19T05:45:07;99923.55;;;31.43;14.54
55912;BME280;41823;45.534;-73.332;2022-10-19T05:47:35;99923.90;;;31.36;14.71
55912;BME280;41823;45.534;-73.332;2022-10-19T05:50:04;99925.38;;;31.49;14.50
55912;BME280;41823;45.534;-73.332;2022-10-19T05:52:32;99928.59;;;31.18;14.66
55912;BME280;41823;45.534;-73.332;2022-10-19T05:55:00;99929.48;;;31.44;14.60
55912;BME280;41823;45.534;-73.332;2022-10-19T05:57:31;99934.15;;;31.66;14.46
55912;BME280;41823;45.534;-73.332;2022-10-19T05:59:58;99940.46;;;31.61;14.34
55912;BME280;41823;45.534;-73.332;2022-10-19T06:02:26;99941.83;;;31.54;14.51
55912;BME280;41823;45.534;-73.332;2022-10-19T06:04:54;99942.79;;;31.56;14.51
55912;BME280;41823;45.534;-73.332;2022-10-19T06:07:23;99941.14;;;31.34;14.51
55912;BME280;41823;45.534;-73.332;2022-10-19T06:09:51;99944.13;;;31.43;14.62
55912;BME280;41823;45.534;-73.332;2022-10-19T06:12:18;99942.92;;;31.38;14.54
55912;BME280;41823;45.534;-73.332;2022-10-19T06:14:49;99945.86;;;31.41;14.63
55912;BME280;41823;45.534;-73.332;2022-10-19T06:17:18;99944.99;;;31.69;14.47
55912;BME280;41823;45.534;-73.332;2022-10-19T06:19:45;99943.27;;;31.61;14.51
55912;BME280;41823;45.534;-73.332;2022-10-19T06:22:13;99939.94;;;31.34;14.56
55912;BME280;41823;45.534;-73.332;2022-10-19T06:24:41;99942.42;;;31.49;14.43
55912;BME280;41823;45.534;-73.332;2022-10-19T06:27:09;99939.45;;;31.51;14.55
55912;BME280;41823;45.534;-73.332;2022-10-19T06:29:37;99939.85;;;31.50;14.39
55912;BME280;41823;45.534;-73.332;2022-10-19T06:32:05;99937.76;;;31.23;14.57
55912;BME280;41823;45.534;-73.332;2022-10-19T06:34:33;99935.93;;;31.38;14.62
55912;BME280;41823;45.534;-73.332;2022-10-19T06:37:01;99934.46;;;31.58;14.36
55912;BME280;41823;45.534;-73.332;2022-10-19T06:39:29;99931.41;;;31.09;14.66
55912;BME280;41823;45.534;-73.332;2022-10-19T06:41:57;99932.36;;;31.66;14.44
55912;BME280;41823;45.534;-73.332;2022-10-19T06:44:25;99929.72;;;31.16;14.44
55912;BME280;41823;45.534;-73.332;2022-10-19T06:46:53;99924.48;;;31.58;14.43
55912;BME280;41823;45.534;-73.332;2022-10-19T06:49:21;99924.31;;;31.45;14.37
55912;BME280;41823;45.534;-73.332;2022-10-19T06:51:49;99921.24;;;31.55;14.41
55912;BME280;41823;45.534;-73.332;2022-10-19T06:54:16;99923.67;;;31.54;14.25
55912;BME280;41823;45.534;-73.332;2022-10-19T06:56:45;99921.52;;;31.47;14.39
55912;BME280;41823;45.534;-73.332;2022-10-19T06:59:12;99917.69;;;31.56;14.32
55912;BME280;41823;45.534;-73.332;2022-10-19T07:01:40;99915.68;;;31.42;14.36
55912;BME280;41823;45.534;-73.332;2022-10-19T07:04:08;99914.27;;;31.56;14.13
55912;BME280;41823;45.534;-73.332;2022-10-19T07:06:36;99910.17;;;31.85;14.07
55912;BME280;41823;45.534;-73.332;2022-10-19T07:09:04;99914.22;;;31.25;14.23
55912;BME280;41823;45.534;-73.332;2022-10-19T07:11:33;99914.25;;;31.41;14.11
55912;BME280;41823;45.534;-73.332;2022-10-19T07:14:01;99917.60;;;31.60;14.11
55912;BME280;41823;45.534;-73.332;2022-10-19T07:16:29;99910.79;;;31.30;13.90
55912;BME280;41823;45.534;-73.332;2022-10-19T07:18:57;99910.98;;;31.58;13.84
55912;BME280;41823;45.534;-73.332;2022-10-19T07:21:26;99914.76;;;31.41;13.89
55912;BME280;41823;45.534;-73.332;2022-10-19T07:23:55;99911.33;;;31.75;13.77
55912;BME280;41823;45.534;-73.332;2022-10-19T07:26:24;99909.83;;;31.48;13.74
55912;BME280;41823;45.534;-73.332;2022-10-19T07:28:55;99913.74;;;31.21;13.85
55912;BME280;41823;45.534;-73.332;2022-10-19T07:31:25;99909.28;;;31.43;13.64
55912;BME280;41823;45.534;-73.332;2022-10-19T07:33:53;99909.59;;;31.28;13.63
55912;BME280;41823;45.534;-73.332;2022-10-19T07:36:22;99906.18;;;31.08;13.73
55912;BME280;41823;45.534;-73.332;2022-10-19T07:38:51;99905.86;;;31.88;13.36
55912;BME280;41823;45.534;-73.332;2022-10-19T07:41:20;99904.95;;;31.58;13.40
55912;BME280;41823;45.534;-73.332;2022-10-19T07:43:49;99904.28;;;31.83;13.37
55912;BME280;41823;45.534;-73.332;2022-10-19T07:46:19;99906.19;;;31.02;13.52
55912;BME280;41823;45.534;-73.332;2022-10-19T07:48:47;99907.90;;;31.41;13.47
55912;BME280;41823;45.534;-73.332;2022-10-19T07:51:18;99909.66;;;31.46;13.50
55912;BME280;41823;45.534;-73.332;2022-10-19T07:53:46;99909.12;;;31.51;13.45
55912;BME280;41823;45.534;-73.332;2022-10-19T07:56:16;99909.72;;;31.43;13.20
55912;BME280;41823;45.534;-73.332;2022-10-19T07:58:45;99916.29;;;31.51;13.40
55912;BME280;41823;45.534;-73.332;2022-10-19T08:01:15;99916.61;;;31.04;13.34
55912;BME280;41823;45.534;-73.332;2022-10-19T08:03:43;99913.67;;;30.89;13.38
55912;BME280;41823;45.534;-73.332;2022-10-19T08:06:14;99918.62;;;31.73;13.20
55912;BME280;41823;45.534;-73.332;2022-10-19T08:08:42;99923.31;;;31.15;13.22
55912;BME280;41823;45.534;-73.332;2022-10-19T08:11:13;99920.73;;;31.35;13.23
55912;BME280;41823;45.534;-73.332;2022-10-19T08:13:41;99914.34;;;31.80;13.04
55912;BME280;41823;45.534;-73.332;2022-10-19T08:16:22;99909.96;;;31.22;12.91
55912;BME280;41823;45.534;-73.332;2022-10-19T08:18:50;99912.76;;;31.48;13.05
55912;BME280;41823;45.534;-73.332;2022-10-19T08:21:17;99910.79;;;31.72;12.87
55912;BME280;41823;45.534;-73.332;2022-10-19T08:23:45;99912.95;;;31.95;12.75
55912;BME280;41823;45.534;-73.332;2022-10-19T08:26:13;99917.79;;;31.87;12.74
55912;BME280;41823;45.534;-73.332;2022-10-19T08:28:42;99916.42;;;31.52;12.77
55912;BME280;41823;45.534;-73.332;2022-10-19T08:31:12;99922.14;;;31.40;13.03
55912;BME280;41823;45.534;-73.332;2022-10-19T08:33:40;99920.57;;;31.22;12.95
55912;BME280;41823;45.534;-73.332;2022-10-19T08:36:09;99920.86;;;31.47;13.16
55912;BME280;41823;45.534;-73.332;2022-10-19T08:38:37;99921.11;;;31.62;13.03
55912;BME280;41823;45.534;-73.332;2022-10-19T08:41:18;99918.67;;;31.94;12.80
55912;BME280;41823;45.534;-73.332;2022-10-19T08:44:05;99923.74;;;31.31;13.19
55912;BME280;41823;45.534;-73.332;2022-10-19T08:46:42;99920.91;;;31.81;12.82
55912;BME280;41823;45.534;-73.332;2022-10-19T08:49:17;99922.08;;;31.92;12.81
55912;BME280;41823;45.534;-73.332;2022-10-19T08:51:50;99922.87;;;31.45;12.87
55912;BME280;41823;45.534;-73.332;2022-10-19T08:54:21;99917.03;;;32.23;12.75
55912;BME280;41823;45.534;-73.332;2022-10-19T08:56:56;99914.06;;;31.60;12.96
55912;BME280;41823;45.534;-73.332;2022-10-19T08:59:34;99909.53;;;32.14;12.76
55912;BME280;41823;45.534;-73.332;2022-10-19T09:02:11;99915.68;;;31.65;12.90
55912;BME280;41823;45.534;-73.332;2022-10-19T09:04:43;99913.57;;;31.40;12.90
55912;BME280;41823;45.534;-73.332;2022-10-19T09:07:32;99917.76;;;31.43;12.90
55912;BME280;41823;45.534;-73.332;2022-10-19T09:10:02;99915.17;;;31.49;12.92
55912;BME280;41823;45.534;-73.332;2022-10-19T09:12:36;99911.33;;;31.81;12.70
55912;BME280;41823;45.534;-73.332;2022-10-19T09:15:12;99913.28;;;31.97;12.73
55912;BME280;41823;45.534;-73.332;2022-10-19T09:17:40;99912.18;;;31.69;12.90
55912;BME280;41823;45.534;-73.332;2022-10-19T09:20:16;99915.33;;;31.37;12.89
55912;BME280;41823;45.534;-73.332;2022-10-19T09:22:45;99917.85;;;31.51;12.96
55912;BME280;41823;45.534;-73.332;2022-10-19T09:25:16;99921.31;;;31.07;13.11
55912;BME280;41823;45.534;-73.332;2022-10-19T09:27:47;99925.82;;;31.37;13.18
55912;BME280;41823;45.534;-73.332;2022-10-19T09:30:19;99927.22;;;31.45;13.01
55912;BME280;41823;45.534;-73.332;2022-10-19T09:32:48;99927.11;;;31.09;13.18
55912;BME280;41823;45.534;-73.332;2022-10-19T09:35:25;99928.31;;;31.65;12.93
55912;BME280;41823;45.534;-73.332;2022-10-19T09:37:55;99929.51;;;31.07;12.96
55912;BME280;41823;45.534;-73.332;2022-10-19T09:40:25;99931.94;;;31.42;13.02
55912;BME280;41823;45.534;-73.332;2022-10-19T09:42:52;99931.30;;;31.44;13.01
55912;BME280;41823;45.534;-73.332;2022-10-19T09:45:30;99931.33;;;31.25;12.93
55912;BME280;41823;45.534;-73.332;2022-10-19T09:48:00;99929.10;;;31.60;12.83
55912;BME280;41823;45.534;-73.332;2022-10-19T09:50:30;99927.18;;;31.46;12.87
55912;BME280;41823;45.534;-73.332;2022-10-19T09:53:02;99926.13;;;31.53;12.79
55912;BME280;41823;45.534;-73.332;2022-10-19T09:55:37;99925.35;;;31.39;12.70
55912;BME280;41823;45.534;-73.332;2022-10-19T09:58:15;99926.43;;;31.51;12.62
55912;BME280;41823;45.534;-73.332;2022-10-19T10:00:46;99926.89;;;31.28;12.81
55912;BME280;41823;45.534;-73.332;2022-10-19T10:03:24;99929.32;;;31.61;12.69
55912;BME280;41823;45.534;-73.332;2022-10-19T10:05:53;99929.97;;;31.59;12.63
55912;BME280;41823;45.534;-73.332;2022-10-19T10:08:24;99928.05;;;31.52;12.75
55912;BME280;41823;45.534;-73.332;2022-10-19T10:10:59;99924.23;;;31.40;12.81
55912;BME280;41823;45.534;-73.332;2022-10-19T10:13:33;99933.15;;;30.98;13.04
55912;BME280;41823;45.534;-73.332;2022-10-19T10:16:05;99933.10;;;31.27;12.93
55912;BME280;41823;45.534;-73.332;2022-10-19T10:18:36;99930.26;;;31.11;13.11
55912;BME280;41823;45.534;-73.332;2022-10-19T10:21:13;99929.52;;;31.37;12.89
55912;BME280;41823;45.534;-73.332;2022-10-19T10:23:41;99934.53;;;30.75;13.13
55912;BME280;41823;45.534;-73.332;2022-10-19T10:26:18;99936.54;;;31.21;13.18
55912;BME280;41823;45.534;-73.332;2022-10-19T10:28:48;99936.65;;;31.21;13.14
55912;BME280;41823;45.534;-73.332;2022-10-19T10:31:21;99932.43;;;31.35;13.13
55912;BME280;41823;45.534;-73.332;2022-10-19T10:33:56;99934.75;;;31.22;13.11
55912;BME280;41823;45.534;-73.332;2022-10-19T10:36:27;99933.09;;;31.34;13.06
55912;BME280;41823;45.534;-73.332;2022-10-19T10:39:05;99931.96;;;31.00;13.29
55912;BME280;41823;45.534;-73.332;2022-10-19T10:41:37;99933.04;;;31.04;13.20
55912;BME280;41823;45.534;-73.332;2022-10-19T10:44:16;99932.83;;;31.49;13.06
55912;BME280;41823;45.534;-73.332;2022-10-19T10:46:51;99930.10;;;31.02;13.08
55912;BME280;41823;45.534;-73.332;2022-10-19T10:49:22;99936.73;;;31.16;13.30
55912;BME280;41823;45.534;-73.332;2022-10-19T10:51:54;99934.47;;;31.03;13.32
55912;BME280;41823;45.534;-73.332;2022-10-19T10:54:24;99940.82;;;31.14;13.36
55912;BME280;41823;45.534;-73.332;2022-10-19T10:57:15;99942.54;;;31.22;13.34
55912;BME280;41823;45.534;-73.332;2022-10-19T10:59:56;99941.17;;;31.48;13.04
55912;BME280;41823;45.534;-73.332;2022-10-19T11:02:34;99940.78;;;31.36;13.16
55912;BME280;41823;45.534;-73.332;2022-10-19T11:05:10;99945.90;;;31.59;12.94
55912;BME280;41823;45.534;-73.332;2022-10-19T11:07:43;99947.38;;;31.72;12.88
55912;BME280;41823;45.534;-73.332;2022-10-19T11:10:20;99947.20;;;30.82;13.11
55912;BME280;41823;45.534;-73.332;2022-10-19T11:12:57;99947.97;;;31.33;12.99
55912;BME280;41823;45.534;-73.332;2022-10-19T11:15:32;99950.80;;;31.26;13.11
55912;BME280;41823;45.534;-73.332;2022-10-19T11:18:13;99950.49;;;31.46;13.03
55912;BME280;41823;45.534;-73.332;2022-10-19T11:20:50;99950.54;;;31.67;12.88
55912;BME280;41823;45.534;-73.332;2022-10-19T11:23:28;99948.55;;;31.50;12.90
55912;BME280;41823;45.534;-73.332;2022-10-19T11:26:07;99947.63;;;31.44;12.94
55912;BME280;41823;45.534;-73.332;2022-10-19T11:28:51;99946.71;;;31.46;13.13
55912;BME280;41823;45.534;-73.332;2022-10-19T11:31:24;99946.01;;;31.63;12.83
55912;BME280;41823;45.534;-73.332;2022-10-19T11:34:03;99948.62;;;31.44;12.76
55912;BME280;41823;45.534;-73.332;2022-10-19T11:36:45;99948.63;;;30.98;12.79
55912;BME280;41823;45.534;-73.332;2022-10-19T11:39:31;99947.46;;;31.50;12.74
55912;BME280;41823;45.534;-73.332;2022-10-19T11:42:10;99948.69;;;31.23;12.74
55912;BME280;41823;45.534;-73.332;2022-10-19T11:44:51;99950.01;;;31.15;12.63
55912;BME280;41823;45.534;-73.332;2022-10-19T11:47:34;99952.32;;;30.97;12.71
55912;BME280;41823;45.534;-73.332;2022-10-19T11:50:14;99949.76;;;31.49;12.62
55912;BME280;41823;45.534;-73.332;2022-10-19T11:52:49;99954.86;;;31.17;12.67
55912;BME280;41823;45.534;-73.332;2022-10-19T11:55:29;99953.74;;;31.53;12.78
55912;BME280;41823;45.534;-73.332;2022-10-19T11:58:12;99956.77;;;31.21;12.88
55912;BME280;41823;45.534;-73.332;2022-10-19T12:00:53;99954.87;;;31.32;12.81
55912;BME280;41823;45.534;-73.332;2022-10-19T12:03:40;99955.26;;;31.62;12.88
55912;BME280;41823;45.534;-73.332;2022-10-19T12:06:20;99956.74;;;31.46;13.06
55912;BME280;41823;45.534;-73.332;2022-10-19T12:09:02;99957.89;;;31.68;12.93
55912;BME280;41823;45.534;-73.332;2022-10-19T12:11:44;99959.24;;;31.60;12.96
55912;BME280;41823;45.534;-73.332;2022-10-19T12:14:18;99954.98;;;31.43;12.99
55912;BME280;41823;45.534;-73.332;2022-10-19T12:16:52;99959.70;;;31.71;12.99
55912;BME280;41823;45.534;-73.332;2022-10-19T12:19:24;99959.60;;;31.80;12.98
55912;BME280;41823;45.534;-73.332;2022-10-19T12:21:59;99960.04;;;31.77;12.90
55912;BME280;41823;45.534;-73.332;2022-10-19T12:24:30;99960.60;;;31.75;12.92
55912;BME280;41823;45.534;-73.332;2022-10-19T12:27:00;99959.89;;;32.14;12.84
55912;BME280;41823;45.534;-73.332;2022-10-19T12:29:30;99964.62;;;31.47;12.88
55912;BME280;41823;45.534;-73.332;2022-10-19T12:32:01;99964.68;;;31.50;13.04
55912;BME280;41823;45.534;-73.332;2022-10-19T12:34:35;99965.84;;;31.45;12.93
55912;BME280;41823;45.534;-73.332;2022-10-19T12:37:13;99966.09;;;31.88;12.99
55912;BME280;41823;45.534;-73.332;2022-10-19T12:39:49;99970.48;;;31.73;12.97
55912;BME280;41823;45.534;-73.332;2022-10-19T12:42:23;99970.47;;;31.57;13.02
55912;BME280;41823;45.534;-73.332;2022-10-19T12:45:10;99973.40;;;31.26;13.24
55912;BME280;41823;45.534;-73.332;2022-10-19T12:48:15;99977.39;;;31.32;13.25
55912;BME280;41823;45.534;-73.332;2022-10-19T12:51:03;99977.39;;;31.62;13.24
55912;BME280;41823;45.534;-73.332;2022-10-19T12:53:33;99981.79;;;31.84;13.35
55912;BME280;41823;45.534;-73.332;2022-10-19T12:56:04;99982.04;;;31.81;13.17
55912;BME280;41823;45.534;-73.332;2022-10-19T12:58:37;99980.62;;;31.50;13.54
55912;BME280;41823;45.534;-73.332;2022-10-19T13:01:07;99985.63;;;31.31;13.60
55912;BME280;41823;45.534;-73.332;2022-10-19T13:03:37;99988.85;;;31.06;13.67
55912;BME280;41823;45.534;-73.332;2022-10-19T13:06:10;99986.21;;;31.24;13.65